Time;durP1;ratioP1;P1;durP2;ratioP2;P2;SDS_P1;SDS_P2;PMS_P1;PMS_P2;Temp;Humidity;BMP_temperature;BMP_pressure;BME280_temperature;BME280_humidity;BME280_pressure;Samples;Min_cycle;Max_cycle;Signal;HPM_P1;HPM_P2
2021/05/21 00:00:10;;;;;;;6.83;3.55;;;;;;;8.75;96.90;99602.71;1633864;84;21101;-85
2021/05/21 00:02:36;;;;;;;10.18;3.83;;;;;;;8.73;96.84;99601.91;1687275;84;21137;-84
2021/05/21 00:05:04;;;;;;;11.93;4.37;;;;;;;8.72;96.82;99607.20;1729751;80;21103;-73
2021/05/21 00:07:31;;;;;;;8.83;3.58;;;;;;;8.72;96.99;99608.52;1703406;84;21125;-72
2021/05/21 00:09:58;;;;;;;12.60;3.70;;;;;;;8.69;96.76;99609.95;1703188;84;21633;-72
2021/05/21 00:12:25;;;;;;;9.50;3.72;;;;;;;8.65;96.79;99605.73;1703387;84;21047;-73
2021/05/21 00:14:52;;;;;;;6.40;3.47;;;;;;;8.60;96.91;99604.16;1703663;84;21093;-72
2021/05/21 00:17:19;;;;;;;7.00;4.00;;;;;;;8.58;96.93;99602.47;1703403;84;21130;-74
2021/05/21 00:19:47;;;;;;;12.60;4.25;;;;;;;8.56;97.09;99607.80;1708981;82;22152;-79
2021/05/21 00:22:14;;;;;;;9.53;3.33;;;;;;;8.55;97.10;99610.01;1681792;84;21140;-75
2021/05/21 00:24:41;;;;;;;5.90;3.58;;;;;;;8.52;97.02;99606.20;1694648;84;21697;-75
2021/05/21 00:27:09;;;;;;;6.97;3.98;;;;;;;8.51;97.09;99615.00;1677463;85;21112;-74
2021/05/21 00:29:38;;;;;;;7.33;3.85;;;;;;;8.48;96.91;99613.78;1691683;84;21084;-75
2021/05/21 00:32:06;;;;;;;8.43;4.08;;;;;;;8.45;97.02;99613.05;1688661;84;21449;-76
2021/05/21 00:34:32;;;;;;;7.92;4.30;;;;;;;8.43;97.04;99620.12;1674102;82;21139;-82
2021/05/21 00:37:02;;;;;;;7.55;3.70;;;;;;;8.40;97.10;99620.63;1700365;84;21081;-81
2021/05/21 00:39:29;;;;;;;14.65;4.20;;;;;;;8.40;97.22;99622.40;1730212;82;21107;-81
2021/05/21 00:41:56;;;;;;;12.82;4.17;;;;;;;8.32;97.13;99616.52;1729347;82;21068;-81
2021/05/21 00:44:23;;;;;;;8.88;3.50;;;;;;;8.37;97.21;99627.27;1700651;84;21152;-81
2021/05/21 00:46:50;;;;;;;7.45;3.70;;;;;;;8.35;97.25;99620.34;1700552;84;21077;-81
2021/05/21 00:49:18;;;;;;;11.93;4.15;;;;;;;8.34;97.09;99630.45;1702136;82;21139;-76
2021/05/21 00:51:47;;;;;;;8.60;3.00;;;;;;;8.34;97.23;99630.45;1670405;84;21104;-72
2021/05/21 00:54:16;;;;;;;17.32;4.62;;;;;;;8.35;97.20;99634.34;1661857;86;21092;-72
2021/05/21 00:56:43;;;;;;;13.35;4.40;;;;;;;8.39;97.76;99633.76;1671584;85;21171;-72
2021/05/21 00:59:11;;;;;;;9.75;3.92;;;;;;;8.38;97.56;99635.99;1666111;84;21139;-72
2021/05/21 01:01:38;;;;;;;14.73;4.28;;;;;;;8.33;97.28;99640.56;1645518;85;21635;-73
2021/05/21 01:04:05;;;;;;;7.75;4.15;;;;;;;8.31;97.33;99643.69;1681002;81;21003;-77
2021/05/21 01:06:33;;;;;;;8.33;4.42;;;;;;;8.28;97.25;99638.53;1697440;84;21573;-76
2021/05/21 01:09:03;;;;;;;9.63;3.65;;;;;;;8.24;97.14;99638.26;1703456;84;21090;-77
2021/05/21 01:11:30;;;;;;;7.22;3.58;;;;;;;8.20;97.24;99643.59;1731280;82;21704;-78
2021/05/21 01:13:58;;;;;;;9.90;4.20;;;;;;;8.16;97.21;99640.67;1703216;84;21608;-76
2021/05/21 01:16:27;;;;;;;4.72;3.55;;;;;;;8.15;97.23;99638.12;1703389;84;21089;-77
2021/05/21 01:18:56;;;;;;;9.65;4.10;;;;;;;8.14;97.41;99646.45;1707627;80;21097;-76
2021/05/21 01:21:23;;;;;;;4.72;3.55;;;;;;;8.14;97.35;99641.20;1742899;82;21351;-76
2021/05/21 01:23:50;;;;;;;8.25;4.08;;;;;;;8.05;97.40;99634.09;1715900;82;21579;-80
2021/05/21 01:26:18;;;;;;;11.12;4.08;;;;;;;8.12;97.29;99641.71;1726156;81;21104;-79
2021/05/21 01:28:45;;;;;;;8.95;3.98;;;;;;;8.08;97.20;99641.41;1733005;82;21142;-77
2021/05/21 01:31:12;;;;;;;5.40;3.80;;;;;;;8.07;97.30;99646.23;1718527;82;21555;-81
2021/05/21 01:33:48;;;;;;;9.45;4.00;;;;;;;8.06;97.32;99647.62;1736728;80;21110;-78
2021/05/21 01:36:15;;;;;;;7.95;3.90;;;;;;;8.06;97.57;99652.41;1715604;83;21092;-73
2021/05/21 01:39:09;;;;;;;8.20;4.10;;;;;;;8.04;97.52;99649.43;1739851;82;21082;-72
2021/05/21 01:41:37;;;;;;;5.25;3.55;;;;;;;8.04;97.59;99650.75;1747989;80;21390;-71
2021/05/21 01:44:06;;;;;;;9.53;3.62;;;;;;;8.05;98.07;99654.64;1719718;82;21472;-74
2021/05/21 01:46:34;;;;;;;4.60;3.65;;;;;;;8.00;97.83;99657.84;1694668;82;21144;-72
2021/05/21 01:49:01;;;;;;;8.63;3.98;;;;;;;7.98;97.75;99660.97;1712270;81;72803;-86
2021/05/21 01:51:28;;;;;;;8.78;3.72;;;;;;;7.93;97.96;99664.20;1706213;83;21639;-86
2021/05/21 01:54:15;;;;;;;10.78;4.05;;;;;;;7.88;97.71;99660.89;1663910;86;21095;-86
2021/05/21 01:56:43;;;;;;;11.53;4.53;;;;;;;7.81;97.58;99660.70;1665340;86;21099;-84
2021/05/21 01:59:10;;;;;;;16.42;4.00;;;;;;;7.73;97.64;99668.36;1693452;84;21102;-85
2021/05/21 02:01:37;;;;;;;9.45;4.35;;;;;;;7.66;97.49;99664.23;1664491;86;21119;-86
2021/05/21 02:04:04;;;;;;;7.20;3.83;;;;;;;7.63;97.84;99670.86;1677034;79;74451;-71
2021/05/21 02:06:37;;;;;;;8.28;3.12;;;;;;;7.60;97.84;99674.05;1787273;79;21587;-71
2021/05/21 02:09:09;;;;;;;12.90;4.50;;;;;;;7.55;97.71;99676.81;1758541;81;21079;-71
2021/05/21 02:11:38;;;;;;;9.60;3.62;;;;;;;7.51;97.81;99680.44;1726942;83;21451;-71
2021/05/21 02:14:06;;;;;;;10.15;3.62;;;;;;;7.45;97.62;99683.23;1726785;83;21112;-71
2021/05/21 02:16:33;;;;;;;7.22;4.00;;;;;;;7.41;97.86;99681.61;1727166;83;21091;-72
2021/05/21 02:19:01;;;;;;;9.93;3.65;;;;;;;7.35;98.07;99680.91;1724166;82;21099;-77
2021/05/21 02:21:32;;;;;;;8.28;3.85;;;;;;;7.31;98.08;99677.97;1622821;87;21379;-76
2021/05/21 02:24:05;;;;;;;4.90;2.93;;;;;;;7.29;98.24;99685.05;1623239;88;21126;-77
2021/05/21 02:26:33;;;;;;;13.28;3.72;;;;;;;7.24;98.20;99680.37;1624380;87;21150;-78
2021/05/21 02:31:56;;;;;;;5.03;3.65;;;;;;;7.21;98.40;99690.95;1791877;79;28100;-78
2021/05/21 02:34:23;;;;;;;8.03;3.72;;;;;;;7.13;98.49;99691.20;1738249;78;21653;-71
2021/05/21 02:36:50;;;;;;;9.25;4.25;;;;;;;7.14;98.60;99702.52;1633343;87;21132;-72
2021/05/21 02:39:17;;;;;;;8.75;3.10;;;;;;;7.14;98.83;99699.91;1633051;85;21127;-71
2021/05/21 02:41:44;;;;;;;10.82;4.20;;;;;;;7.15;98.88;99706.84;1633150;87;21671;-73
2021/05/21 02:44:11;;;;;;;8.98;3.70;;;;;;;7.19;99.20;99707.16;1608542;85;21148;-74
2021/05/21 02:46:38;;;;;;;5.92;3.52;;;;;;;7.23;99.34;99703.55;1606784;88;21145;-73
2021/05/21 02:49:09;;;;;;;6.80;4.00;;;;;;;7.27;99.35;99709.11;1610980;87;21337;-80
2021/05/21 02:51:37;;;;;;;7.12;3.60;;;;;;;7.32;99.63;99707.20;1652793;86;21044;-78
2021/05/21 02:54:04;;;;;;;7.12;3.80;;;;;;;7.39;99.92;99707.88;1652850;86;21091;-79
2021/05/21 02:56:31;;;;;;;9.10;4.53;;;;;;;7.49;100.00;99713.22;1597533;86;21167;-78
2021/05/21 02:58:58;;;;;;;6.10;3.72;;;;;;;7.62;100.00;99708.93;1617146;88;21119;-78
2021/05/21 03:01:28;;;;;;;9.30;4.10;;;;;;;7.74;100.00;99705.91;1628172;87;21170;-79
2021/05/21 03:03:56;;;;;;;9.05;4.37;;;;;;;7.90;100.00;99707.12;1630374;87;21682;-79
2021/05/21 03:06:23;;;;;;;6.72;3.37;;;;;;;8.07;100.00;99707.02;1708787;80;21629;-77
2021/05/21 03:08:50;;;;;;;6.22;4.00;;;;;;;8.23;100.00;99707.36;1712277;83;21566;-74
2021/05/21 03:11:17;;;;;;;5.75;3.35;;;;;;;8.40;100.00;99704.59;1711743;83;21083;-76
2021/05/21 03:13:45;;;;;;;5.97;3.83;;;;;;;8.60;100.00;99706.52;1712177;83;21146;-76
2021/05/21 03:16:11;;;;;;;5.20;3.40;;;;;;;8.78;100.00;99704.13;1711994;83;21103;-77
2021/05/21 03:18:38;;;;;;;4.15;3.20;;;;;;;8.99;100.00;99707.27;1711837;83;21185;-76
2021/05/21 03:21:05;;;;;;;8.23;3.40;;;;;;;9.18;100.00;99710.55;1624297;80;21155;-73
2021/05/21 03:23:32;;;;;;;5.40;3.40;;;;;;;9.41;100.00;99713.14;1596813;89;21196;-73
2021/05/21 03:26:01;;;;;;;6.70;3.45;;;;;;;9.63;100.00;99718.39;1642852;86;21172;-73
2021/05/21 03:28:27;;;;;;;4.97;3.35;;;;;;;9.85;100.00;99715.77;1630788;84;21114;-74
2021/05/21 03:30:55;;;;;;;4.33;2.67;;;;;;;10.10;100.00;99716.09;1648244;86;21087;-73
2021/05/21 03:33:22;;;;;;;6.25;3.12;;;;;;;10.41;100.00;99713.03;1657148;83;21119;-76
2021/05/21 03:35:49;;;;;;;5.60;3.02;;;;;;;10.86;99.85;99721.16;1709469;81;21671;-84
2021/05/21 03:38:16;;;;;;;7.33;3.12;;;;;;;11.29;99.07;99724.45;1689343;84;21086;-80
2021/05/21 03:40:43;;;;;;;6.00;2.95;;;;;;;11.76;95.53;99729.75;1689074;84;21090;-80
2021/05/21 03:43:12;;;;;;;5.92;2.98;;;;;;;12.41;93.63;99725.27;1687601;84;21107;-77
2021/05/21 03:45:39;;;;;;;4.25;2.50;;;;;;;12.96;90.25;99724.56;1686842;83;21101;-78
2021/05/21 03:48:08;;;;;;;6.05;3.00;;;;;;;13.51;86.81;99726.50;1683022;84;21637;-81
2021/05/21 03:50:35;;;;;;;6.97;2.70;;;;;;;13.98;85.24;99733.06;1681808;82;21122;-71
2021/05/21 03:53:02;;;;;;;4.37;2.52;;;;;;;14.42;80.72;99728.31;1690554;84;21091;-73
2021/05/21 03:55:29;;;;;;;5.78;3.15;;;;;;;14.75;77.31;99732.56;1690724;84;21123;-71
2021/05/21 03:57:56;;;;;;;4.87;3.72;;;;;;;14.94;77.13;99731.44;1690700;84;21132;-72
2021/05/21 04:00:23;;;;;;;3.00;2.58;;;;;;;15.13;74.27;99733.31;1690750;84;21072;-70
2021/05/21 04:02:50;;;;;;;3.72;2.60;;;;;;;15.42;74.68;99729.33;1686928;84;21897;-72
2021/05/21 04:05:18;;;;;;;5.30;3.17;;;;;;;15.78;72.62;99735.89;1688139;81;21085;-80
2021/05/21 04:07:46;;;;;;;2.92;2.50;;;;;;;16.03;70.76;99745.28;1705661;82;21571;-81
2021/05/21 04:10:13;;;;;;;6.50;2.90;;;;;;;16.24;70.82;99736.85;1706685;83;21352;-84
2021/05/21 04:12:40;;;;;;;6.83;2.52;;;;;;;16.39;68.23;99739.82;1692360;84;21140;-83
2021/05/21 04:15:10;;;;;;;6.60;2.77;;;;;;;16.46;66.34;99743.77;1692366;83;21069;-80
2021/05/21 04:17:37;;;;;;;3.17;2.42;;;;;;;16.53;65.86;99741.06;1698428;83;21078;-79
2021/05/21 04:20:07;;;;;;;5.17;2.33;;;;;;;16.74;64.25;99740.06;1736774;82;21658;-77
2021/05/21 04:22:34;;;;;;;6.10;2.50;;;;;;;17.04;64.58;99747.39;1736367;82;21124;-77
2021/05/21 04:25:04;;;;;;;5.65;2.17;;;;;;;17.39;61.17;99744.44;1723885;82;21038;-77
2021/05/21 04:27:31;;;;;;;6.00;2.12;;;;;;;17.55;60.96;99738.86;1711615;82;21101;-77
2021/05/21 04:29:58;;;;;;;5.67;2.10;;;;;;;17.84;62.78;99742.56;1671969;85;21075;-78
2021/05/21 04:32:25;;;;;;;10.38;2.58;;;;;;;18.00;58.98;99744.95;1683325;85;21085;-78
2021/05/21 04:34:52;;;;;;;6.75;1.90;;;;;;;18.09;59.65;99745.61;1684524;83;21156;-68
2021/05/21 04:37:20;;;;;;;4.25;2.10;;;;;;;18.21;58.65;99744.67;1664656;83;21131;-69
2021/05/21 04:39:48;;;;;;;7.22;1.92;;;;;;;18.52;56.35;99754.38;1682331;84;21855;-68
2021/05/21 04:42:15;;;;;;;4.28;1.60;;;;;;;18.87;56.26;99749.52;1680813;85;21132;-68
2021/05/21 04:44:42;;;;;;;4.62;1.85;;;;;;;19.14;53.32;99749.18;1678671;83;21251;-67
2021/05/21 04:47:09;;;;;;;3.33;1.67;;;;;;;19.42;52.87;99756.34;1695767;84;21060;-68
2021/05/21 04:52:37;;;;;;;2.05;1.30;;;;;;;19.65;50.61;99750.48;1790061;78;22638;-72
2021/05/21 04:55:05;;;;;;;4.15;2.00;;;;;;;19.56;49.73;99756.56;1765177;80;21046;-71
2021/05/21 04:57:33;;;;;;;6.90;1.60;;;;;;;19.48;48.87;99762.01;1772409;80;21790;-71
2021/05/21 05:00:00;;;;;;;5.62;1.70;;;;;;;19.41;49.43;99768.81;1768142;79;21000;-72
2021/05/21 05:02:28;;;;;;;7.87;1.45;;;;;;;19.47;51.71;99767.00;1759813;79;21045;-70
2021/05/21 05:04:55;;;;;;;14.73;2.08;;;;;;;19.46;48.55;99772.45;1772750;78;21031;-71
2021/05/21 05:07:22;;;;;;;5.78;1.40;;;;;;;19.42;48.90;99770.53;1729265;81;21088;-71
2021/05/21 05:09:49;;;;;;;2.08;1.20;;;;;;;19.52;47.54;99768.45;1720754;81;21092;-71
2021/05/21 05:12:16;;;;;;;5.55;1.20;;;;;;;19.53;46.01;99774.16;1734561;81;21026;-72
2021/05/21 05:14:44;;;;;;;3.10;1.30;;;;;;;19.38;46.14;99778.41;1728116;81;21136;-72
2021/05/21 05:17:11;;;;;;;2.83;1.35;;;;;;;19.30;45.68;99780.83;1718611;82;21126;-71
2021/05/21 05:19:52;;;;;;;6.60;1.60;;;;;;;19.15;46.22;99779.38;1728126;82;21092;-72
2021/05/21 05:22:19;;;;;;;4.40;1.40;;;;;;;19.04;46.59;99777.05;1634930;87;21669;-75
2021/05/21 05:24:46;;;;;;;3.83;1.20;;;;;;;19.11;47.73;99783.25;1633340;87;21091;-74
2021/05/21 05:27:15;;;;;;;2.33;1.40;;;;;;;19.40;47.46;99785.82;1641697;86;21127;-76
2021/05/21 05:29:47;;;;;;;3.15;1.47;;;;;;;19.62;48.49;99785.44;1648416;85;21180;-75
2021/05/21 05:32:15;;;;;;;3.27;1.47;;;;;;;19.75;47.04;99792.86;1622595;85;22285;-75
2021/05/21 05:34:42;;;;;;;1.80;1.20;;;;;;;19.86;46.53;99788.84;1627958;86;21749;-75
2021/05/21 05:37:09;;;;;;;3.22;1.62;;;;;;;19.96;45.49;99785.42;1644982;85;21182;-76
2021/05/21 05:39:36;;;;;;;4.40;1.30;;;;;;;20.07;46.27;99784.89;1625830;86;21680;-75
2021/05/21 05:42:04;;;;;;;6.47;1.32;;;;;;;20.25;45.61;99783.03;1644791;86;21129;-76
2021/05/21 05:44:31;;;;;;;6.42;1.30;;;;;;;20.44;44.44;99778.33;1644961;85;21089;-75
2021/05/21 05:46:58;;;;;;;4.92;1.52;;;;;;;20.54;45.05;99786.80;1649807;85;21900;-76
2021/05/21 05:49:25;;;;;;;1.57;1.20;;;;;;;20.71;44.56;99788.07;1646520;85;21106;-75
2021/05/21 05:51:52;;;;;;;3.58;1.30;;;;;;;20.95;42.80;99792.30;1639473;85;21109;-73
2021/05/21 05:54:19;;;;;;;1.70;1.30;;;;;;;21.12;43.36;99793.55;1650401;85;21104;-75
2021/05/21 05:56:46;;;;;;;5.25;1.40;;;;;;;21.28;41.60;99795.72;1650662;85;21053;-75
2021/05/21 05:59:13;;;;;;;15.55;1.77;;;;;;;21.38;41.35;99795.29;1638251;85;21145;-76
2021/05/21 06:01:40;;;;;;;3.40;1.25;;;;;;;21.49;42.86;99793.89;1647620;85;21224;-78
2021/05/21 06:04:07;;;;;;;3.05;1.30;;;;;;;21.73;41.52;99786.84;1633906;83;46433;-77
2021/05/21 06:06:34;;;;;;;2.70;1.10;;;;;;;21.95;41.24;99788.45;1602490;88;21251;-78
2021/05/21 06:09:02;;;;;;;3.90;1.20;;;;;;;22.21;40.10;99786.61;1622014;86;21192;-76
2021/05/21 06:11:29;;;;;;;2.35;1.12;;;;;;;22.43;39.46;99783.29;1623555;86;21170;-78
2021/05/21 06:13:56;;;;;;;3.67;1.07;;;;;;;22.39;39.38;99792.13;1629331;86;21154;-77
2021/05/21 06:16:23;;;;;;;1.00;0.72;;;;;;;22.28;38.62;99790.42;1620433;87;21634;-77
2021/05/21 06:18:52;;;;;;;1.60;0.90;;;;;;;22.16;38.47;99784.81;1615596;87;21162;-77
2021/05/21 06:21:19;;;;;;;2.90;0.82;;;;;;;22.13;38.36;99781.05;1581138;89;21119;-76
2021/05/21 06:23:46;;;;;;;1.57;0.70;;;;;;;22.14;37.02;99790.81;1579264;89;21087;-76
2021/05/21 06:26:29;;;;;;;3.20;1.05;;;;;;;22.12;38.30;99790.09;1620410;87;21126;-77
2021/05/21 06:28:45;;;;;;;1.67;1.02;;;;;;;22.21;36.91;99790.63;1612457;87;21712;-76
2021/05/21 06:31:12;;;;;;;1.57;0.78;;;;;;;22.26;38.17;99792.39;1616224;87;21585;-76
2021/05/21 06:33:41;;;;;;;0.53;0.53;;;;;;;22.29;36.23;99790.80;1568702;90;21087;-76
2021/05/21 06:36:08;;;;;;;1.87;0.70;;;;;;;22.14;35.84;99786.78;1597744;88;21538;-77
2021/05/21 06:38:35;;;;;;;1.85;0.80;;;;;;;22.04;35.95;99787.25;1570980;89;21664;-75
2021/05/21 06:41:03;;;;;;;2.27;0.60;;;;;;;21.82;35.83;99780.31;1582097;89;21092;-78
2021/05/21 06:43:30;;;;;;;0.98;0.57;;;;;;;21.74;37.60;99784.53;1591628;88;21121;-77
2021/05/21 06:45:58;;;;;;;4.15;0.80;;;;;;;21.96;37.25;99786.61;1615118;87;21875;-77
2021/05/21 06:48:29;;;;;;;0.80;0.60;;;;;;;22.19;35.40;99792.57;1618211;87;21288;-80
2021/05/21 06:50:54;;;;;;;4.37;0.72;;;;;;;22.30;36.07;99792.48;1616695;87;21039;-90
2021/05/21 06:53:22;;;;;;;5.30;0.70;;;;;;;22.35;35.53;99790.22;1607178;87;21187;-91
2021/05/21 06:55:50;;;;;;;6.22;0.80;;;;;;;22.31;35.46;99794.66;1595279;88;20959;-85
2021/05/21 06:58:19;;;;;;;2.60;0.90;;;;;;;22.52;36.86;99794.52;1567690;89;21335;-74
2021/05/21 07:00:48;;;;;;;1.07;0.60;;;;;;;22.75;35.27;99793.25;1571702;89;21125;-74
2021/05/21 07:03:16;;;;;;;2.35;0.95;;;;;;;22.99;35.14;99792.80;1611948;87;21118;-74
2021/05/21 07:05:44;;;;;;;4.90;0.82;;;;;;;23.21;34.90;99795.66;1590507;81;21612;-72
2021/05/21 07:08:11;;;;;;;5.40;0.90;;;;;;;23.30;34.77;99792.56;1707576;81;21116;-73
2021/05/21 07:10:38;;;;;;;5.08;0.90;;;;;;;23.37;35.44;99792.31;1709206;81;21094;-74
2021/05/21 07:13:12;;;;;;;1.12;0.85;;;;;;;23.41;36.35;99790.20;1681138;82;21865;-74
2021/05/21 07:15:39;;;;;;;4.30;1.02;;;;;;;23.54;35.14;99796.09;1696754;82;21218;-73
2021/05/21 07:18:06;;;;;;;3.55;0.90;;;;;;;23.84;35.39;99794.97;1679725;83;21087;-72
2021/05/21 07:20:34;;;;;;;2.85;1.00;;;;;;;24.12;33.91;99803.01;1679300;81;21138;-72
2021/05/21 07:23:01;;;;;;;1.32;0.65;;;;;;;24.22;34.55;99798.90;1660836;84;21116;-72
2021/05/21 07:25:28;;;;;;;4.55;0.93;;;;;;;24.37;34.15;99800.06;1682409;82;21105;-71
2021/05/21 07:27:55;;;;;;;5.58;0.90;;;;;;;24.51;32.77;99805.44;1688887;83;21341;-72
2021/05/21 07:30:23;;;;;;;7.40;1.77;;;;;;;24.32;33.24;99802.85;1677776;84;21121;-71
2021/05/21 07:32:51;;;;;;;2.70;1.17;;;;;;;24.18;32.58;99810.95;1688070;83;21156;-71
2021/05/21 07:35:18;;;;;;;4.17;0.75;;;;;;;23.96;32.46;99809.05;1687509;83;21164;-71
2021/05/21 07:37:46;;;;;;;2.65;0.62;;;;;;;23.84;33.32;99808.92;1681163;84;21773;-72
2021/05/21 07:40:16;;;;;;;1.40;0.65;;;;;;;23.90;32.51;99813.67;1676404;84;21235;-73
2021/05/21 07:42:43;;;;;;;3.33;1.10;;;;;;;23.93;32.36;99813.40;1668132;84;21139;-71
2021/05/21 07:45:11;;;;;;;3.42;0.70;;;;;;;23.94;32.99;99814.23;1688050;84;21157;-72
2021/05/21 07:47:38;;;;;;;5.30;0.90;;;;;;;24.07;32.49;99810.19;1678305;83;21254;-73
2021/05/21 07:50:07;;;;;;;1.30;0.60;;;;;;;24.39;31.58;99805.30;1682877;83;21173;-71
2021/05/21 07:52:34;;;;;;;4.97;1.05;;;;;;;24.47;30.99;99808.92;1683738;83;22305;-71
2021/05/21 07:55:05;;;;;;;11.55;1.72;;;;;;;24.67;30.84;99819.55;1683279;83;21693;-71
2021/05/21 07:57:33;;;;;;;6.83;1.32;;;;;;;24.59;32.52;99810.04;1672180;82;21107;-72
2021/05/21 08:00:00;;;;;;;3.60;0.80;;;;;;;24.45;32.51;99815.44;1643918;85;21209;-72
2021/05/21 08:02:27;;;;;;;6.45;1.02;;;;;;;24.17;33.49;99819.53;1700405;82;21127;-73
2021/05/21 08:04:54;;;;;;;10.23;1.50;;;;;;;23.97;34.26;99820.17;1701107;82;21062;-70
2021/05/21 08:07:21;;;;;;;4.33;1.00;;;;;;;23.98;34.62;99823.70;1662543;83;21521;-71
2021/05/21 08:09:51;;;;;;;2.98;1.00;;;;;;;24.02;34.04;99815.69;1664379;83;21131;-74
2021/05/21 08:12:19;;;;;;;2.92;1.02;;;;;;;24.08;33.93;99823.97;1686648;83;22613;-72
2021/05/21 08:14:47;;;;;;;7.92;1.30;;;;;;;24.10;34.18;99824.34;1657657;83;21126;-72
2021/05/21 08:17:15;;;;;;;11.60;1.30;;;;;;;24.02;33.46;99825.94;1647968;85;21610;-72
2021/05/21 08:19:42;;;;;;;4.95;1.30;;;;;;;24.03;33.61;99819.55;1616367;87;21126;-72
2021/05/21 08:22:10;;;;;;;2.45;1.02;;;;;;;24.17;34.04;99821.38;1725498;78;21140;-73
2021/05/21 08:24:37;;;;;;;2.90;0.82;;;;;;;24.46;32.19;99822.53;1736236;80;21747;-71
2021/05/21 08:27:04;;;;;;;5.35;0.70;;;;;;;24.44;31.51;99819.14;1740738;80;21067;-72
2021/05/21 08:29:33;;;;;;;4.60;0.62;;;;;;;24.44;31.89;99822.67;1741428;80;21083;-71
2021/05/21 08:32:01;;;;;;;4.22;0.78;;;;;;;24.43;31.04;99820.99;1688235;81;22467;-71
2021/05/21 08:34:28;;;;;;;0.90;0.68;;;;;;;24.40;31.97;99825.31;1686603;83;21626;-71
2021/05/21 08:36:57;;;;;;;2.55;0.70;;;;;;;24.53;30.88;99816.91;1698591;82;21123;-72
2021/05/21 08:39:24;;;;;;;3.95;0.90;;;;;;;24.93;30.51;99822.27;1679906;84;21102;-72
2021/05/21 08:41:53;;;;;;;4.40;0.90;;;;;;;25.06;30.52;99819.17;1655937;84;21786;-72
2021/05/21 08:44:21;;;;;;;4.87;1.00;;;;;;;25.16;28.72;99819.91;1651276;84;21108;-72
2021/05/21 08:46:48;;;;;;;4.30;0.80;;;;;;;24.98;29.72;99820.45;1667322;84;21112;-73
2021/05/21 08:49:19;;;;;;;6.08;0.72;;;;;;;24.85;29.35;99823.57;1665426;83;21206;-72
2021/05/21 08:51:46;;;;;;;1.65;0.70;;;;;;;24.77;29.12;99830.22;1689492;82;21629;-70
2021/05/21 08:54:13;;;;;;;2.33;0.72;;;;;;;24.80;31.43;99828.08;1723244;80;21925;-71
2021/05/21 08:56:43;;;;;;;3.00;0.70;;;;;;;24.69;29.39;99825.12;1741355;80;21122;-72
2021/05/21 08:59:09;;;;;;;0.62;0.60;;;;;;;24.48;30.05;99826.78;1743432;78;21477;-71
2021/05/21 09:01:54;;;;;;;2.17;0.80;;;;;;;24.16;29.92;99830.47;1738884;80;21150;-73
2021/05/21 09:04:20;;;;;;;3.05;1.00;;;;;;;23.90;30.23;99832.50;1733779;80;21057;-71
2021/05/21 09:06:48;;;;;;;3.15;1.00;;;;;;;23.86;31.91;99825.75;1716474;80;21871;-73
2021/05/21 09:09:15;;;;;;;0.78;0.60;;;;;;;24.11;32.27;99838.12;1685891;83;21127;-70
2021/05/21 09:11:45;;;;;;;17.52;1.60;;;;;;;24.44;30.38;99835.28;1658766;84;21134;-73
2021/05/21 09:14:18;;;;;;;2.33;0.80;;;;;;;24.78;30.64;99838.16;1634302;85;21637;-71
2021/05/21 09:16:46;;;;;;;8.50;0.93;;;;;;;24.80;29.67;99838.85;1630036;84;21186;-71
2021/05/21 09:19:23;;;;;;;1.77;0.60;;;;;;;24.86;28.67;99827.44;1641020;85;21089;-70
2021/05/21 09:22:07;;;;;;;5.87;0.95;;;;;;;24.85;29.59;99839.22;1652661;81;21192;-76
2021/05/21 09:24:38;;;;;;;15.95;1.40;;;;;;;24.85;28.21;99840.56;1688073;83;21078;-78
2021/05/21 09:27:06;;;;;;;1.42;0.72;;;;;;;24.84;29.39;99840.20;1677990;83;21495;-77
2021/05/21 09:29:40;;;;;;;3.95;0.60;;;;;;;24.66;30.35;99843.41;1695309;83;21799;-83
2021/05/21 09:32:24;;;;;;;4.95;0.85;;;;;;;24.48;28.45;99840.24;1627950;86;21266;-82
2021/05/21 09:35:15;;;;;;;3.05;0.70;;;;;;;24.27;30.26;99832.44;1679039;82;21798;-81
2021/05/21 09:37:52;;;;;;;2.75;0.60;;;;;;;24.24;31.26;99841.30;1678978;82;21067;-82
2021/05/21 09:40:27;;;;;;;3.20;0.70;;;;;;;24.13;29.63;99838.81;1630516;86;21080;-83
2021/05/21 09:43:00;;;;;;;2.37;0.90;;;;;;;24.17;29.82;99835.67;1670270;82;37012;-82
2021/05/21 09:45:35;;;;;;;1.07;0.70;;;;;;;24.51;30.55;99832.86;1706391;83;21134;-80
2021/05/21 09:48:05;;;;;;;4.72;0.82;;;;;;;24.91;30.13;99835.91;1701886;83;21339;-81
2021/05/21 09:50:39;;;;;;;4.00;0.80;;;;;;;25.18;31.29;99832.75;1692990;83;21671;-81
2021/05/21 09:53:13;;;;;;;2.42;0.70;;;;;;;25.12;28.75;99830.64;1680141;84;21145;-82
2021/05/21 09:56:00;;;;;;;1.27;0.70;;;;;;;25.01;29.34;99826.89;1678027;85;21085;-82
2021/05/21 09:58:31;;;;;;;5.12;0.90;;;;;;;24.73;28.10;99835.06;1622275;85;21155;-84
2021/05/21 10:01:17;;;;;;;6.72;1.00;;;;;;;24.45;28.06;99835.11;1636590;85;21166;-82
2021/05/21 10:03:55;;;;;;;8.68;1.45;;;;;;;24.26;28.72;99833.92;1633870;85;21159;-84
2021/05/21 10:06:25;;;;;;;2.72;0.80;;;;;;;24.33;29.91;99834.16;1688930;82;21113;-81
2021/05/21 10:08:55;;;;;;;2.75;1.00;;;;;;;24.46;28.97;99831.44;1685645;82;21158;-80
2021/05/21 10:11:20;;;;;;;1.92;0.78;;;;;;;24.71;26.41;99835.74;1684217;83;21593;-82
2021/05/21 10:13:51;;;;;;;2.20;0.80;;;;;;;24.93;26.65;99831.70;1662584;84;21170;-82
2021/05/21 10:16:17;;;;;;;2.37;0.75;;;;;;;25.16;26.17;99833.37;1656786;84;22695;-82
2021/05/21 10:18:48;;;;;;;3.40;0.80;;;;;;;25.21;26.64;99824.34;1663783;84;21663;-84
2021/05/21 10:21:16;;;;;;;1.27;0.90;;;;;;;25.34;27.42;99822.58;1684773;81;22189;-72
2021/05/21 10:24:03;;;;;;;25.97;2.92;;;;;;;25.28;27.13;99818.69;1661155;85;21118;-70
2021/05/21 10:26:38;;;;;;;3.75;0.80;;;;;;;25.31;28.79;99829.14;1652208;86;21147;-71
2021/05/21 10:29:14;;;;;;;1.77;0.60;;;;;;;25.40;27.77;99821.95;1619204;87;21702;-72
2021/05/21 10:31:40;;;;;;;15.10;1.30;;;;;;;25.59;24.02;99818.16;1632797;86;21141;-67
2021/05/21 10:34:20;;;;;;;3.02;0.62;;;;;;;25.62;27.56;99818.34;1641210;86;21240;-72
2021/05/21 10:37:18;;;;;;;3.75;0.80;;;;;;;25.78;24.97;99818.92;1662502;82;21202;-73
2021/05/21 10:40:15;;;;;;;4.62;0.80;;;;;;;26.08;25.03;99808.09;1682146;83;21146;-73
2021/05/21 10:43:04;;;;;;;2.90;0.90;;;;;;;26.26;25.89;99820.95;1717519;81;21107;-71
2021/05/21 10:45:34;;;;;;;4.03;1.10;;;;;;;26.45;27.31;99814.39;1691484;81;21336;-71
2021/05/21 10:48:06;;;;;;;3.75;0.90;;;;;;;26.50;24.29;99814.75;1743903;80;21097;-72
2021/05/21 10:50:38;;;;;;;0.87;0.50;;;;;;;26.43;25.56;99815.05;1770337;80;21232;-73
2021/05/21 10:53:09;;;;;;;0.65;0.60;;;;;;;26.36;23.61;99812.21;1666457;80;21451;-72
2021/05/21 10:55:47;;;;;;;2.55;0.82;;;;;;;26.37;23.14;99810.34;1652303;84;21205;-72
2021/05/21 10:58:31;;;;;;;1.95;0.70;;;;;;;26.09;24.78;99812.46;1627325;85;21114;-73
2021/05/21 11:01:22;;;;;;;4.25;0.85;;;;;;;25.94;23.60;99803.66;1645410;84;21067;-73
2021/05/21 11:04:03;;;;;;;4.35;1.00;;;;;;;25.94;24.36;99798.27;1648584;84;21098;-73
2021/05/21 11:06:32;;;;;;;2.95;0.70;;;;;;;26.06;25.42;99803.36;1662585;80;21110;-76
2021/05/21 11:09:07;;;;;;;6.95;1.15;;;;;;;26.25;24.90;99806.25;1720433;80;21091;-75
2021/05/21 11:12:07;;;;;;;2.00;0.80;;;;;;;26.25;24.86;99799.52;1725935;80;21046;-75
2021/05/21 11:14:45;;;;;;;6.10;0.98;;;;;;;26.32;25.93;99795.16;1734427;80;21076;-75
2021/05/21 11:17:25;;;;;;;3.52;0.60;;;;;;;26.42;25.09;99795.00;1680874;83;21072;-75
2021/05/21 11:19:57;;;;;;;5.87;0.90;;;;;;;26.46;24.16;99805.81;1720275;80;21164;-76
2021/05/21 11:22:37;;;;;;;5.97;0.98;;;;;;;26.47;24.85;99804.27;1686461;81;21437;-83
2021/05/21 11:25:15;;;;;;;2.47;0.80;;;;;;;26.31;23.77;99802.39;1672484;83;21117;-82
2021/05/21 11:27:43;;;;;;;5.12;0.80;;;;;;;26.36;23.26;99800.06;1666004;84;21964;-82
2021/05/21 11:30:14;;;;;;;3.50;0.93;;;;;;;26.31;24.82;99791.59;1668855;84;21132;-81
2021/05/21 11:32:41;;;;;;;6.00;0.82;;;;;;;26.34;25.18;99802.56;1669680;83;21244;-83
2021/05/21 11:35:10;;;;;;;2.25;0.70;;;;;;;26.37;24.02;99803.59;1674689;83;21662;-82
2021/05/21 11:37:39;;;;;;;1.47;0.50;;;;;;;26.39;26.57;99812.38;1690661;83;21171;-81
2021/05/21 11:40:08;;;;;;;6.30;1.10;;;;;;;26.29;24.39;99808.97;1670549;84;21667;-83
2021/05/21 11:42:37;;;;;;;4.53;0.75;;;;;;;26.06;25.32;99812.28;1649671;84;21067;-80
2021/05/21 11:45:06;;;;;;;5.50;0.90;;;;;;;25.68;25.68;99817.20;1679412;83;21108;-80
2021/05/21 11:47:37;;;;;;;4.03;1.10;;;;;;;25.42;24.33;99813.69;1660516;84;21087;-81
2021/05/21 11:50:07;;;;;;;7.97;1.20;;;;;;;25.18;26.75;99821.97;1678773;83;21029;-80